sensor_id;sensor_type;location;lat;lon;timestamp;P1;durP1;ratioP1;P2;durP2;ratioP2
25049;SDS011;13046;49.814;9.918;2024-01-07T00:00:00;27.90;;;20.67;;
25049;SDS011;13046;49.814;9.918;2024-01-07T00:02:26;23.42;;;19.67;;
25049;SDS011;13046;49.814;9.918;2024-01-07T00:04:52;22.08;;;18.58;;
25049;SDS011;13046;49.814;9.918;2024-01-07T00:07:18;23.90;;;18.17;;
25049;SDS011;13046;49.814;9.918;2024-01-07T00:09:46;24.05;;;18.25;;
25049;SDS011;13046;49.814;9.918;2024-01-07T00:12:12;26.38;;;19.67;;
25049;SDS011;13046;49.814;9.918;2024-01-07T00:14:38;22.98;;;18.25;;
25049;SDS011;13046;49.814;9.918;2024-01-07T00:17:04;20.85;;;18.05;;
25049;SDS011;13046;49.814;9.918;2024-01-07T00:19:30;18.35;;;16.52;;
25049;SDS011;13046;49.814;9.918;2024-01-07T00:21:57;20.52;;;16.63;;
25049;SDS011;13046;49.814;9.918;2024-01-07T00:24:23;21.75;;;17.40;;
25049;SDS011;13046;49.814;9.918;2024-01-07T00:26:51;19.67;;;17.40;;
25049;SDS011;13046;49.814;9.918;2024-01-07T00:29:17;23.90;;;18.13;;
25049;SDS011;13046;49.814;9.918;2024-01-07T00:31:43;24.15;;;19.67;;
25049;SDS011;13046;49.814;9.918;2024-01-07T00:34:09;22.95;;;18.17;;
25049;SDS011;13046;49.814;9.918;2024-01-07T00:36:35;22.08;;;18.73;;
25049;SDS011;13046;49.814;9.918;2024-01-07T00:39:02;21.13;;;18.63;;
25049;SDS011;13046;49.814;9.918;2024-01-07T00:41:28;35.40;;;25.42;;
25049;SDS011;13046;49.814;9.918;2024-01-07T00:43:55;30.90;;;21.48;;
25049;SDS011;13046;49.814;9.918;2024-01-07T00:46:21;27.35;;;21.00;;
25049;SDS011;13046;49.814;9.918;2024-01-07T00:48:47;27.92;;;23.27;;
25049;SDS011;13046;49.814;9.918;2024-01-07T00:51:14;28.33;;;23.38;;
25049;SDS011;13046;49.814;9.918;2024-01-07T00:53:40;47.58;;;30.98;;
25049;SDS011;13046;49.814;9.918;2024-01-07T00:56:06;37.80;;;25.88;;
25049;SDS011;13046;49.814;9.918;2024-01-07T00:58:32;39.17;;;23.83;;
25049;SDS011;13046;49.814;9.918;2024-01-07T01:00:59;33.97;;;23.80;;
25049;SDS011;13046;49.814;9.918;2024-01-07T01:03:25;30.08;;;22.02;;
25049;SDS011;13046;49.814;9.918;2024-01-07T01:05:52;26.60;;;19.23;;
25049;SDS011;13046;49.814;9.918;2024-01-07T01:08:18;26.20;;;17.80;;
25049;SDS011;13046;49.814;9.918;2024-01-07T01:10:44;25.23;;;17.60;;
25049;SDS011;13046;49.814;9.918;2024-01-07T01:13:10;25.05;;;17.98;;
25049;SDS011;13046;49.814;9.918;2024-01-07T01:15:36;25.58;;;17.65;;
25049;SDS011;13046;49.814;9.918;2024-01-07T01:18:02;24.92;;;19.00;;
25049;SDS011;13046;49.814;9.918;2024-01-07T01:20:28;25.70;;;19.13;;
25049;SDS011;13046;49.814;9.918;2024-01-07T01:22:54;26.55;;;19.42;;
25049;SDS011;13046;49.814;9.918;2024-01-07T01:25:20;28.42;;;19.65;;
25049;SDS011;13046;49.814;9.918;2024-01-07T01:27:47;22.80;;;17.45;;
25049;SDS011;13046;49.814;9.918;2024-01-07T01:30:13;23.35;;;18.05;;
25049;SDS011;13046;49.814;9.918;2024-01-07T01:32:39;22.33;;;17.92;;
25049;SDS011;13046;49.814;9.918;2024-01-07T01:35:05;24.45;;;17.83;;
25049;SDS011;13046;49.814;9.918;2024-01-07T01:37:31;26.75;;;18.65;;
25049;SDS011;13046;49.814;9.918;2024-01-07T01:39:58;21.63;;;17.75;;
25049;SDS011;13046;49.814;9.918;2024-01-07T01:42:24;22.80;;;17.38;;
25049;SDS011;13046;49.814;9.918;2024-01-07T01:44:50;21.73;;;17.02;;
25049;SDS011;13046;49.814;9.918;2024-01-07T01:47:18;21.23;;;17.23;;
25049;SDS011;13046;49.814;9.918;2024-01-07T01:49:45;18.92;;;14.95;;
25049;SDS011;13046;49.814;9.918;2024-01-07T01:52:12;20.10;;;15.77;;
25049;SDS011;13046;49.814;9.918;2024-01-07T01:54:39;21.98;;;16.48;;
25049;SDS011;13046;49.814;9.918;2024-01-07T01:57:06;20.55;;;16.65;;
25049;SDS011;13046;49.814;9.918;2024-01-07T01:59:33;19.65;;;15.57;;
25049;SDS011;13046;49.814;9.918;2024-01-07T02:02:00;21.08;;;14.98;;
25049;SDS011;13046;49.814;9.918;2024-01-07T02:04:27;21.52;;;16.40;;
25049;SDS011;13046;49.814;9.918;2024-01-07T02:06:53;20.38;;;15.73;;
25049;SDS011;13046;49.814;9.918;2024-01-07T02:09:19;20.38;;;16.02;;
25049;SDS011;13046;49.814;9.918;2024-01-07T02:11:59;24.67;;;15.00;;
25049;SDS011;13046;49.814;9.918;2024-01-07T02:14:26;23.95;;;16.90;;
25049;SDS011;13046;49.814;9.918;2024-01-07T02:16:52;21.80;;;14.93;;
25049;SDS011;13046;49.814;9.918;2024-01-07T02:19:18;18.35;;;14.52;;
25049;SDS011;13046;49.814;9.918;2024-01-07T02:21:45;19.35;;;16.27;;
25049;SDS011;13046;49.814;9.918;2024-01-07T02:24:15;16.33;;;14.32;;
25049;SDS011;13046;49.814;9.918;2024-01-07T02:26:41;26.17;;;17.52;;
25049;SDS011;13046;49.814;9.918;2024-01-07T02:29:07;20.85;;;16.38;;
25049;SDS011;13046;49.814;9.918;2024-01-07T02:31:33;21.45;;;14.52;;
25049;SDS011;13046;49.814;9.918;2024-01-07T02:33:59;20.55;;;15.55;;
25049;SDS011;13046;49.814;9.918;2024-01-07T02:36:25;21.08;;;17.80;;
25049;SDS011;13046;49.814;9.918;2024-01-07T02:38:52;21.40;;;16.40;;
25049;SDS011;13046;49.814;9.918;2024-01-07T02:41:18;20.17;;;16.77;;
25049;SDS011;13046;49.814;9.918;2024-01-07T02:43:45;19.42;;;16.30;;
25049;SDS011;13046;49.814;9.918;2024-01-07T02:46:11;24.73;;;16.95;;
25049;SDS011;13046;49.814;9.918;2024-01-07T02:48:37;20.73;;;15.85;;
25049;SDS011;13046;49.814;9.918;2024-01-07T02:51:03;21.73;;;14.20;;
25049;SDS011;13046;49.814;9.918;2024-01-07T02:53:30;20.08;;;17.13;;
25049;SDS011;13046;49.814;9.918;2024-01-07T02:55:56;23.40;;;14.40;;
25049;SDS011;13046;49.814;9.918;2024-01-07T02:58:22;17.83;;;14.85;;
25049;SDS011;13046;49.814;9.918;2024-01-07T03:00:48;20.10;;;13.05;;
25049;SDS011;13046;49.814;9.918;2024-01-07T03:03:15;14.88;;;13.27;;
25049;SDS011;13046;49.814;9.918;2024-01-07T03:05:41;13.32;;;10.98;;
25049;SDS011;13046;49.814;9.918;2024-01-07T03:08:07;18.67;;;12.60;;
25049;SDS011;13046;49.814;9.918;2024-01-07T03:10:33;19.02;;;12.70;;
25049;SDS011;13046;49.814;9.918;2024-01-07T03:13:00;15.20;;;12.77;;
25049;SDS011;13046;49.814;9.918;2024-01-07T03:15:26;15.35;;;12.48;;
25049;SDS011;13046;49.814;9.918;2024-01-07T03:17:52;14.75;;;12.50;;
25049;SDS011;13046;49.814;9.918;2024-01-07T03:20:18;15.63;;;11.55;;
25049;SDS011;13046;49.814;9.918;2024-01-07T03:22:44;14.60;;;12.05;;
25049;SDS011;13046;49.814;9.918;2024-01-07T03:25:11;15.38;;;11.70;;
25049;SDS011;13046;49.814;9.918;2024-01-07T03:27:37;15.18;;;11.60;;
25049;SDS011;13046;49.814;9.918;2024-01-07T03:30:03;14.77;;;11.48;;
25049;SDS011;13046;49.814;9.918;2024-01-07T03:32:29;21.58;;;13.00;;
25049;SDS011;13046;49.814;9.918;2024-01-07T03:34:55;14.23;;;12.05;;
25049;SDS011;13046;49.814;9.918;2024-01-07T03:37:21;20.73;;;13.63;;
25049;SDS011;13046;49.814;9.918;2024-01-07T03:39:47;16.02;;;11.52;;
25049;SDS011;13046;49.814;9.918;2024-01-07T03:42:14;18.88;;;14.23;;
25049;SDS011;13046;49.814;9.918;2024-01-07T03:44:40;16.63;;;12.50;;
25049;SDS011;13046;49.814;9.918;2024-01-07T03:47:06;17.50;;;12.55;;
25049;SDS011;13046;49.814;9.918;2024-01-07T03:49:32;16.33;;;12.15;;
25049;SDS011;13046;49.814;9.918;2024-01-07T03:51:58;15.35;;;11.90;;
25049;SDS011;13046;49.814;9.918;2024-01-07T03:54:24;17.77;;;13.13;;
25049;SDS011;13046;49.814;9.918;2024-01-07T03:56:50;18.67;;;13.05;;
25049;SDS011;13046;49.814;9.918;2024-01-07T03:59:16;14.93;;;12.27;;
25049;SDS011;13046;49.814;9.918;2024-01-07T04:01:43;15.98;;;11.93;;
25049;SDS011;13046;49.814;9.918;2024-01-07T04:04:09;18.42;;;13.27;;
25049;SDS011;13046;49.814;9.918;2024-01-07T04:06:35;17.17;;;11.93;;
25049;SDS011;13046;49.814;9.918;2024-01-07T04:09:01;18.45;;;12.00;;
25049;SDS011;13046;49.814;9.918;2024-01-07T04:11:29;17.70;;;11.95;;
25049;SDS011;13046;49.814;9.918;2024-01-07T04:13:55;15.55;;;12.15;;
25049;SDS011;13046;49.814;9.918;2024-01-07T04:16:21;14.02;;;10.93;;
25049;SDS011;13046;49.814;9.918;2024-01-07T04:18:47;17.20;;;12.63;;
25049;SDS011;13046;49.814;9.918;2024-01-07T04:21:13;15.20;;;11.98;;
25049;SDS011;13046;49.814;9.918;2024-01-07T04:23:40;15.35;;;11.65;;
25049;SDS011;13046;49.814;9.918;2024-01-07T04:26:06;15.40;;;12.57;;
25049;SDS011;13046;49.814;9.918;2024-01-07T04:28:32;16.23;;;12.15;;
25049;SDS011;13046;49.814;9.918;2024-01-07T04:30:59;15.48;;;12.38;;
25049;SDS011;13046;49.814;9.918;2024-01-07T04:33:25;15.80;;;12.32;;
25049;SDS011;13046;49.814;9.918;2024-01-07T04:35:51;17.38;;;12.65;;
25049;SDS011;13046;49.814;9.918;2024-01-07T04:38:17;18.38;;;12.35;;
25049;SDS011;13046;49.814;9.918;2024-01-07T04:40:43;15.32;;;12.57;;
25049;SDS011;13046;49.814;9.918;2024-01-07T04:43:09;18.15;;;12.40;;
25049;SDS011;13046;49.814;9.918;2024-01-07T04:45:35;16.02;;;12.80;;
25049;SDS011;13046;49.814;9.918;2024-01-07T04:48:01;18.27;;;12.77;;
25049;SDS011;13046;49.814;9.918;2024-01-07T04:50:27;18.70;;;12.23;;
25049;SDS011;13046;49.814;9.918;2024-01-07T04:52:53;16.10;;;12.80;;
25049;SDS011;13046;49.814;9.918;2024-01-07T04:55:20;20.75;;;13.93;;
25049;SDS011;13046;49.814;9.918;2024-01-07T04:57:46;17.42;;;13.50;;
25049;SDS011;13046;49.814;9.918;2024-01-07T05:00:12;17.98;;;13.38;;
25049;SDS011;13046;49.814;9.918;2024-01-07T05:02:38;16.45;;;11.65;;
25049;SDS011;13046;49.814;9.918;2024-01-07T05:05:04;18.77;;;12.50;;
25049;SDS011;13046;49.814;9.918;2024-01-07T05:07:30;17.60;;;12.10;;
25049;SDS011;13046;49.814;9.918;2024-01-07T05:09:57;19.00;;;12.00;;
25049;SDS011;13046;49.814;9.918;2024-01-07T05:12:23;17.20;;;12.27;;
25049;SDS011;13046;49.814;9.918;2024-01-07T05:14:50;16.30;;;11.63;;
25049;SDS011;13046;49.814;9.918;2024-01-07T05:17:16;15.27;;;12.75;;
25049;SDS011;13046;49.814;9.918;2024-01-07T05:19:42;15.48;;;11.05;;
25049;SDS011;13046;49.814;9.918;2024-01-07T05:22:08;12.60;;;11.07;;
25049;SDS011;13046;49.814;9.918;2024-01-07T05:24:37;16.75;;;12.10;;
25049;SDS011;13046;49.814;9.918;2024-01-07T05:27:04;13.60;;;11.10;;
25049;SDS011;13046;49.814;9.918;2024-01-07T05:29:31;17.88;;;10.82;;
25049;SDS011;13046;49.814;9.918;2024-01-07T05:32:00;12.75;;;10.02;;
25049;SDS011;13046;49.814;9.918;2024-01-07T05:34:28;16.00;;;10.68;;
25049;SDS011;13046;49.814;9.918;2024-01-07T05:36:54;15.35;;;10.93;;
25049;SDS011;13046;49.814;9.918;2024-01-07T05:39:20;14.23;;;11.02;;
25049;SDS011;13046;49.814;9.918;2024-01-07T05:41:46;13.32;;;11.27;;
25049;SDS011;13046;49.814;9.918;2024-01-07T05:44:12;17.35;;;11.52;;
25049;SDS011;13046;49.814;9.918;2024-01-07T05:46:38;16.23;;;13.02;;
25049;SDS011;13046;49.814;9.918;2024-01-07T05:49:05;16.05;;;11.68;;
25049;SDS011;13046;49.814;9.918;2024-01-07T05:51:31;19.38;;;13.60;;
25049;SDS011;13046;49.814;9.918;2024-01-07T05:53:57;15.20;;;11.73;;
25049;SDS011;13046;49.814;9.918;2024-01-07T05:56:23;19.55;;;12.38;;
25049;SDS011;13046;49.814;9.918;2024-01-07T05:58:49;17.73;;;12.50;;
25049;SDS011;13046;49.814;9.918;2024-01-07T06:01:19;17.35;;;13.55;;
25049;SDS011;13046;49.814;9.918;2024-01-07T06:03:46;18.85;;;11.85;;
25049;SDS011;13046;49.814;9.918;2024-01-07T06:06:15;16.90;;;12.68;;
25049;SDS011;13046;49.814;9.918;2024-01-07T06:08:41;17.38;;;13.18;;
25049;SDS011;13046;49.814;9.918;2024-01-07T06:11:08;17.98;;;13.15;;
25049;SDS011;13046;49.814;9.918;2024-01-07T06:13:34;18.92;;;13.63;;
25049;SDS011;13046;49.814;9.918;2024-01-07T06:16:01;18.73;;;13.32;;
25049;SDS011;13046;49.814;9.918;2024-01-07T06:18:27;18.50;;;12.48;;
25049;SDS011;13046;49.814;9.918;2024-01-07T06:20:53;19.40;;;13.57;;
25049;SDS011;13046;49.814;9.918;2024-01-07T06:23:19;16.95;;;13.38;;
25049;SDS011;13046;49.814;9.918;2024-01-07T06:25:45;17.73;;;11.77;;
25049;SDS011;13046;49.814;9.918;2024-01-07T06:28:11;22.48;;;14.20;;
25049;SDS011;13046;49.814;9.918;2024-01-07T06:30:37;19.77;;;13.60;;
25049;SDS011;13046;49.814;9.918;2024-01-07T06:33:04;21.50;;;13.80;;
25049;SDS011;13046;49.814;9.918;2024-01-07T06:35:30;18.48;;;12.85;;
25049;SDS011;13046;49.814;9.918;2024-01-07T06:37:56;16.42;;;12.20;;
25049;SDS011;13046;49.814;9.918;2024-01-07T06:40:22;18.35;;;13.15;;
25049;SDS011;13046;49.814;9.918;2024-01-07T06:42:48;14.50;;;11.48;;
25049;SDS011;13046;49.814;9.918;2024-01-07T06:45:15;16.90;;;12.10;;
25049;SDS011;13046;49.814;9.918;2024-01-07T06:47:42;17.75;;;11.40;;
25049;SDS011;13046;49.814;9.918;2024-01-07T06:50:09;20.23;;;13.57;;
25049;SDS011;13046;49.814;9.918;2024-01-07T06:52:36;19.55;;;11.88;;
25049;SDS011;13046;49.814;9.918;2024-01-07T06:55:02;19.67;;;12.95;;
25049;SDS011;13046;49.814;9.918;2024-01-07T06:57:28;18.98;;;14.45;;
25049;SDS011;13046;49.814;9.918;2024-01-07T06:59:54;15.32;;;12.65;;
25049;SDS011;13046;49.814;9.918;2024-01-07T07:02:20;16.20;;;11.32;;
25049;SDS011;13046;49.814;9.918;2024-01-07T07:04:47;17.85;;;12.48;;
25049;SDS011;13046;49.814;9.918;2024-01-07T07:07:13;15.38;;;11.85;;
25049;SDS011;13046;49.814;9.918;2024-01-07T07:09:39;16.48;;;11.30;;
25049;SDS011;13046;49.814;9.918;2024-01-07T07:12:05;13.02;;;10.05;;
25049;SDS011;13046;49.814;9.918;2024-01-07T07:14:33;15.02;;;10.50;;
25049;SDS011;13046;49.814;9.918;2024-01-07T07:16:59;15.02;;;11.23;;
25049;SDS011;13046;49.814;9.918;2024-01-07T07:19:26;15.02;;;10.27;;
25049;SDS011;13046;49.814;9.918;2024-01-07T07:21:52;12.88;;;9.27;;
25049;SDS011;13046;49.814;9.918;2024-01-07T07:24:18;15.50;;;9.45;;
25049;SDS011;13046;49.814;9.918;2024-01-07T07:26:44;13.80;;;9.48;;
25049;SDS011;13046;49.814;9.918;2024-01-07T07:29:10;14.35;;;9.55;;
25049;SDS011;13046;49.814;9.918;2024-01-07T07:31:37;13.90;;;9.77;;
25049;SDS011;13046;49.814;9.918;2024-01-07T07:34:03;10.90;;;7.80;;
25049;SDS011;13046;49.814;9.918;2024-01-07T07:36:29;9.18;;;7.50;;
25049;SDS011;13046;49.814;9.918;2024-01-07T07:38:55;11.93;;;8.10;;
25049;SDS011;13046;49.814;9.918;2024-01-07T07:41:22;9.80;;;8.25;;
25049;SDS011;13046;49.814;9.918;2024-01-07T07:43:48;12.75;;;9.32;;
25049;SDS011;13046;49.814;9.918;2024-01-07T07:46:14;11.23;;;8.35;;
25049;SDS011;13046;49.814;9.918;2024-01-07T07:48:41;11.55;;;8.45;;
25049;SDS011;13046;49.814;9.918;2024-01-07T07:51:07;13.32;;;9.68;;
25049;SDS011;13046;49.814;9.918;2024-01-07T07:53:33;10.05;;;8.52;;
25049;SDS011;13046;49.814;9.918;2024-01-07T07:56:00;10.45;;;8.43;;
25049;SDS011;13046;49.814;9.918;2024-01-07T07:58:26;12.02;;;9.25;;
25049;SDS011;13046;49.814;9.918;2024-01-07T08:00:52;11.93;;;8.98;;
25049;SDS011;13046;49.814;9.918;2024-01-07T08:03:18;10.63;;;8.70;;
25049;SDS011;13046;49.814;9.918;2024-01-07T08:05:45;13.60;;;9.15;;
25049;SDS011;13046;49.814;9.918;2024-01-07T08:08:11;13.52;;;9.95;;
25049;SDS011;13046;49.814;9.918;2024-01-07T08:10:37;11.75;;;8.73;;
25049;SDS011;13046;49.814;9.918;2024-01-07T08:13:03;10.70;;;9.63;;
25049;SDS011;13046;49.814;9.918;2024-01-07T08:15:29;12.60;;;9.63;;
25049;SDS011;13046;49.814;9.918;2024-01-07T08:17:55;16.42;;;10.77;;
25049;SDS011;13046;49.814;9.918;2024-01-07T08:20:21;14.50;;;10.10;;
25049;SDS011;13046;49.814;9.918;2024-01-07T08:22:47;14.57;;;11.48;;
25049;SDS011;13046;49.814;9.918;2024-01-07T08:25:13;15.50;;;11.27;;
25049;SDS011;13046;49.814;9.918;2024-01-07T08:27:42;17.25;;;10.80;;
25049;SDS011;13046;49.814;9.918;2024-01-07T08:30:09;14.65;;;11.00;;
25049;SDS011;13046;49.814;9.918;2024-01-07T08:32:35;13.75;;;10.52;;
25049;SDS011;13046;49.814;9.918;2024-01-07T08:35:01;13.15;;;10.63;;
25049;SDS011;13046;49.814;9.918;2024-01-07T08:37:28;14.27;;;11.85;;
25049;SDS011;13046;49.814;9.918;2024-01-07T08:39:54;13.15;;;10.65;;
25049;SDS011;13046;49.814;9.918;2024-01-07T08:42:20;11.80;;;10.60;;
25049;SDS011;13046;49.814;9.918;2024-01-07T08:44:46;13.45;;;11.07;;
25049;SDS011;13046;49.814;9.918;2024-01-07T08:47:12;14.90;;;12.10;;
25049;SDS011;13046;49.814;9.918;2024-01-07T08:49:39;12.48;;;10.05;;
25049;SDS011;13046;49.814;9.918;2024-01-07T08:52:05;12.48;;;10.70;;
25049;SDS011;13046;49.814;9.918;2024-01-07T08:54:33;14.15;;;10.98;;
25049;SDS011;13046;49.814;9.918;2024-01-07T08:56:59;11.75;;;10.13;;
25049;SDS011;13046;49.814;9.918;2024-01-07T08:59:25;13.68;;;11.05;;
25049;SDS011;13046;49.814;9.918;2024-01-07T09:01:51;14.93;;;10.30;;
25049;SDS011;13046;49.814;9.918;2024-01-07T09:04:17;15.32;;;11.90;;
25049;SDS011;13046;49.814;9.918;2024-01-07T09:06:43;16.88;;;13.88;;
25049;SDS011;13046;49.814;9.918;2024-01-07T09:09:09;12.45;;;11.15;;
25049;SDS011;13046;49.814;9.918;2024-01-07T09:11:36;15.35;;;11.77;;
25049;SDS011;13046;49.814;9.918;2024-01-07T09:14:02;15.38;;;11.32;;
25049;SDS011;13046;49.814;9.918;2024-01-07T09:16:29;13.40;;;11.48;;
25049;SDS011;13046;49.814;9.918;2024-01-07T09:18:55;13.95;;;11.15;;
25049;SDS011;13046;49.814;9.918;2024-01-07T09:21:21;16.52;;;13.05;;
25049;SDS011;13046;49.814;9.918;2024-01-07T09:23:48;15.02;;;10.82;;
25049;SDS011;13046;49.814;9.918;2024-01-07T09:26:14;14.25;;;10.95;;
25049;SDS011;13046;49.814;9.918;2024-01-07T09:28:40;14.57;;;10.73;;
25049;SDS011;13046;49.814;9.918;2024-01-07T09:31:08;16.05;;;11.85;;
25049;SDS011;13046;49.814;9.918;2024-01-07T09:33:34;15.63;;;11.63;;
25049;SDS011;13046;49.814;9.918;2024-01-07T09:36:00;15.75;;;11.75;;
25049;SDS011;13046;49.814;9.918;2024-01-07T09:38:26;14.43;;;11.57;;
25049;SDS011;13046;49.814;9.918;2024-01-07T09:40:52;16.55;;;12.07;;
25049;SDS011;13046;49.814;9.918;2024-01-07T09:43:19;13.82;;;11.65;;
25049;SDS011;13046;49.814;9.918;2024-01-07T09:45:46;16.23;;;12.98;;
25049;SDS011;13046;49.814;9.918;2024-01-07T09:48:13;18.13;;;12.90;;
25049;SDS011;13046;49.814;9.918;2024-01-07T09:50:39;17.33;;;12.52;;
25049;SDS011;13046;49.814;9.918;2024-01-07T09:53:06;18.50;;;13.43;;
25049;SDS011;13046;49.814;9.918;2024-01-07T09:55:33;20.05;;;14.60;;
25049;SDS011;13046;49.814;9.918;2024-01-07T09:57:59;21.45;;;14.23;;
25049;SDS011;13046;49.814;9.918;2024-01-07T10:00:26;20.65;;;14.85;;
25049;SDS011;13046;49.814;9.918;2024-01-07T10:02:54;18.50;;;14.60;;
25049;SDS011;13046;49.814;9.918;2024-01-07T10:05:20;21.60;;;14.50;;
25049;SDS011;13046;49.814;9.918;2024-01-07T10:07:46;18.95;;;15.48;;
25049;SDS011;13046;49.814;9.918;2024-01-07T10:10:16;21.25;;;16.13;;
25049;SDS011;13046;49.814;9.918;2024-01-07T10:12:45;20.58;;;14.32;;
25049;SDS011;13046;49.814;9.918;2024-01-07T10:15:12;19.83;;;14.27;;
25049;SDS011;13046;49.814;9.918;2024-01-07T10:17:39;20.85;;;16.23;;
25049;SDS011;13046;49.814;9.918;2024-01-07T10:20:05;20.27;;;14.45;;
25049;SDS011;13046;49.814;9.918;2024-01-07T10:22:35;17.27;;;13.93;;
25049;SDS011;13046;49.814;9.918;2024-01-07T10:25:01;18.75;;;13.50;;
25049;SDS011;13046;49.814;9.918;2024-01-07T10:27:27;18.55;;;13.43;;
25049;SDS011;13046;49.814;9.918;2024-01-07T10:29:53;17.73;;;13.80;;
25049;SDS011;13046;49.814;9.918;2024-01-07T10:32:20;15.77;;;12.50;;
25049;SDS011;13046;49.814;9.918;2024-01-07T10:34:46;17.73;;;13.13;;
25049;SDS011;13046;49.814;9.918;2024-01-07T10:37:12;17.75;;;13.35;;
25049;SDS011;13046;49.814;9.918;2024-01-07T10:39:39;19.33;;;12.65;;
25049;SDS011;13046;49.814;9.918;2024-01-07T10:42:05;15.15;;;12.27;;
25049;SDS011;13046;49.814;9.918;2024-01-07T10:44:32;18.48;;;14.23;;
25049;SDS011;13046;49.814;9.918;2024-01-07T10:46:59;16.35;;;13.38;;
25049;SDS011;13046;49.814;9.918;2024-01-07T10:49:26;17.58;;;13.60;;
25049;SDS011;13046;49.814;9.918;2024-01-07T10:52:08;19.67;;;12.30;;
25049;SDS011;13046;49.814;9.918;2024-01-07T10:54:36;20.05;;;14.55;;
25049;SDS011;13046;49.814;9.918;2024-01-07T10:59:31;24.35;;;15.27;;
25049;SDS011;13046;49.814;9.918;2024-01-07T11:01:58;17.10;;;11.95;;
25049;SDS011;13046;49.814;9.918;2024-01-07T11:04:29;18.58;;;13.85;;
25049;SDS011;13046;49.814;9.918;2024-01-07T11:07:09;19.05;;;14.25;;
25049;SDS011;13046;49.814;9.918;2024-01-07T11:09:39;16.70;;;12.73;;
25049;SDS011;13046;49.814;9.918;2024-01-07T11:12:10;16.02;;;12.88;;
25049;SDS011;13046;49.814;9.918;2024-01-07T11:14:38;38.45;;;26.20;;
25049;SDS011;13046;49.814;9.918;2024-01-07T11:17:12;15.77;;;11.93;;
25049;SDS011;13046;49.814;9.918;2024-01-07T11:19:43;19.13;;;12.77;;
25049;SDS011;13046;49.814;9.918;2024-01-07T11:22:25;18.55;;;13.88;;
25049;SDS011;13046;49.814;9.918;2024-01-07T11:24:55;33.85;;;21.95;;
25049;SDS011;13046;49.814;9.918;2024-01-07T11:27:22;18.08;;;13.38;;
25049;SDS011;13046;49.814;9.918;2024-01-07T11:29:55;16.85;;;11.30;;
25049;SDS011;13046;49.814;9.918;2024-01-07T11:32:30;18.10;;;12.93;;
25049;SDS011;13046;49.814;9.918;2024-01-07T11:35:00;16.40;;;13.50;;
25049;SDS011;13046;49.814;9.918;2024-01-07T11:37:27;16.10;;;12.65;;
25049;SDS011;13046;49.814;9.918;2024-01-07T11:39:57;15.88;;;11.90;;
25049;SDS011;13046;49.814;9.918;2024-01-07T11:42:23;19.92;;;13.25;;
25049;SDS011;13046;49.814;9.918;2024-01-07T11:44:53;17.15;;;12.77;;
25049;SDS011;13046;49.814;9.918;2024-01-07T11:47:20;13.77;;;11.73;;
25049;SDS011;13046;49.814;9.918;2024-01-07T11:49:46;16.65;;;13.85;;
25049;SDS011;13046;49.814;9.918;2024-01-07T11:52:12;16.63;;;13.45;;
25049;SDS011;13046;49.814;9.918;2024-01-07T11:54:39;17.52;;;12.20;;
25049;SDS011;13046;49.814;9.918;2024-01-07T11:57:06;18.00;;;12.18;;
25049;SDS011;13046;49.814;9.918;2024-01-07T11:59:35;15.38;;;13.05;;
25049;SDS011;13046;49.814;9.918;2024-01-07T12:02:01;19.45;;;13.63;;
25049;SDS011;13046;49.814;9.918;2024-01-07T12:04:30;18.38;;;13.15;;
25049;SDS011;13046;49.814;9.918;2024-01-07T12:06:56;16.70;;;12.65;;
25049;SDS011;13046;49.814;9.918;2024-01-07T12:09:22;15.48;;;12.23;;
25049;SDS011;13046;49.814;9.918;2024-01-07T12:11:48;14.60;;;11.52;;
25049;SDS011;13046;49.814;9.918;2024-01-07T12:14:14;16.98;;;12.45;;
25049;SDS011;13046;49.814;9.918;2024-01-07T12:16:40;19.42;;;14.30;;
25049;SDS011;13046;49.814;9.918;2024-01-07T12:19:08;18.42;;;13.13;;
25049;SDS011;13046;49.814;9.918;2024-01-07T12:21:34;16.15;;;13.00;;
25049;SDS011;13046;49.814;9.918;2024-01-07T12:24:00;14.40;;;11.50;;
25049;SDS011;13046;49.814;9.918;2024-01-07T12:26:27;16.48;;;12.75;;
25049;SDS011;13046;49.814;9.918;2024-01-07T12:28:54;18.00;;;12.90;;
25049;SDS011;13046;49.814;9.918;2024-01-07T12:31:21;15.25;;;11.85;;
25049;SDS011;13046;49.814;9.918;2024-01-07T12:33:47;16.98;;;11.52;;
25049;SDS011;13046;49.814;9.918;2024-01-07T12:36:13;18.52;;;14.32;;
25049;SDS011;13046;49.814;9.918;2024-01-07T12:38:40;15.23;;;12.52;;
25049;SDS011;13046;49.814;9.918;2024-01-07T12:41:06;22.17;;;15.82;;
25049;SDS011;13046;49.814;9.918;2024-01-07T12:43:33;18.98;;;12.23;;
25049;SDS011;13046;49.814;9.918;2024-01-07T12:45:59;15.57;;;11.93;;
25049;SDS011;13046;49.814;9.918;2024-01-07T12:48:30;18.67;;;12.25;;
25049;SDS011;13046;49.814;9.918;2024-01-07T12:50:56;16.75;;;12.00;;
25049;SDS011;13046;49.814;9.918;2024-01-07T12:53:23;16.98;;;11.88;;
25049;SDS011;13046;49.814;9.918;2024-01-07T12:55:49;15.50;;;10.77;;
25049;SDS011;13046;49.814;9.918;2024-01-07T12:58:15;16.90;;;11.13;;
25049;SDS011;13046;49.814;9.918;2024-01-07T13:00:42;14.60;;;11.95;;
25049;SDS011;13046;49.814;9.918;2024-01-07T13:03:09;15.48;;;11.45;;
25049;SDS011;13046;49.814;9.918;2024-01-07T13:08:08;16.00;;;11.40;;
25049;SDS011;13046;49.814;9.918;2024-01-07T13:10:34;13.15;;;10.73;;
25049;SDS011;13046;49.814;9.918;2024-01-07T13:13:00;14.63;;;10.00;;
25049;SDS011;13046;49.814;9.918;2024-01-07T13:15:26;14.15;;;11.40;;
25049;SDS011;13046;49.814;9.918;2024-01-07T13:17:54;17.65;;;11.50;;
25049;SDS011;13046;49.814;9.918;2024-01-07T13:20:20;16.95;;;11.25;;
25049;SDS011;13046;49.814;9.918;2024-01-07T13:22:46;16.60;;;10.00;;
25049;SDS011;13046;49.814;9.918;2024-01-07T13:25:12;11.77;;;9.52;;
25049;SDS011;13046;49.814;9.918;2024-01-07T13:27:38;14.15;;;10.23;;
25049;SDS011;13046;49.814;9.918;2024-01-07T13:30:05;14.68;;;10.30;;
25049;SDS011;13046;49.814;9.918;2024-01-07T13:32:31;19.90;;;12.10;;
25049;SDS011;13046;49.814;9.918;2024-01-07T13:35:03;14.98;;;11.57;;
25049;SDS011;13046;49.814;9.918;2024-01-07T13:37:29;15.38;;;10.57;;
25049;SDS011;13046;49.814;9.918;2024-01-07T13:39:58;14.98;;;9.55;;
25049;SDS011;13046;49.814;9.918;2024-01-07T13:42:26;13.20;;;9.95;;
25049;SDS011;13046;49.814;9.918;2024-01-07T13:44:52;13.68;;;11.00;;
25049;SDS011;13046;49.814;9.918;2024-01-07T13:47:18;13.85;;;9.43;;
25049;SDS011;13046;49.814;9.918;2024-01-07T13:49:44;14.18;;;9.30;;
25049;SDS011;13046;49.814;9.918;2024-01-07T13:52:10;12.80;;;9.95;;
25049;SDS011;13046;49.814;9.918;2024-01-07T13:54:36;15.93;;;9.75;;
25049;SDS011;13046;49.814;9.918;2024-01-07T13:57:03;11.88;;;10.50;;
25049;SDS011;13046;49.814;9.918;2024-01-07T13:59:29;12.82;;;9.60;;
25049;SDS011;13046;49.814;9.918;2024-01-07T14:01:55;15.20;;;9.85;;
25049;SDS011;13046;49.814;9.918;2024-01-07T14:04:24;12.60;;;8.90;;
25049;SDS011;13046;49.814;9.918;2024-01-07T14:06:54;15.32;;;9.40;;
25049;SDS011;13046;49.814;9.918;2024-01-07T14:09:23;14.63;;;9.55;;
25049;SDS011;13046;49.814;9.918;2024-01-07T14:11:49;11.40;;;9.00;;
25049;SDS011;13046;49.814;9.918;2024-01-07T14:14:16;16.15;;;9.20;;
25049;SDS011;13046;49.814;9.918;2024-01-07T14:16:44;12.02;;;9.32;;
25049;SDS011;13046;49.814;9.918;2024-01-07T14:19:10;11.35;;;8.55;;
25049;SDS011;13046;49.814;9.918;2024-01-07T14:21:36;12.18;;;8.15;;
25049;SDS011;13046;49.814;9.918;2024-01-07T14:24:02;12.10;;;9.20;;